sensor_id;sensor_type;location;lat;lon;timestamp;pressure;altitude;pressure_sealevel;temperature;humidity
42601;BME280;28229;48.856;9.088;2023-07-20T00:02:25;97815.22;;;19.22;53.02
42601;BME280;28229;48.856;9.088;2023-07-20T00:04:51;97823.75;;;19.24;52.49
42601;BME280;28229;48.856;9.088;2023-07-20T00:07:18;97821.66;;;19.16;52.25
42601;BME280;28229;48.856;9.088;2023-07-20T00:09:44;97820.88;;;19.10;52.06
42601;BME280;28229;48.856;9.088;2023-07-20T00:12:10;97824.09;;;19.07;52.10
42601;BME280;28229;48.856;9.088;2023-07-20T00:14:36;97821.75;;;19.00;51.63
42601;BME280;28229;48.856;9.088;2023-07-20T00:17:02;97826.81;;;18.97;50.27
42601;BME280;28229;48.856;9.088;2023-07-20T00:19:28;97822.59;;;18.86;50.86
42601;BME280;28229;48.856;9.088;2023-07-20T00:21:55;97826.63;;;18.83;50.51
42601;BME280;28229;48.856;9.088;2023-07-20T00:24:21;97828.72;;;18.81;50.69
42601;BME280;28229;48.856;9.088;2023-07-20T00:26:47;97823.69;;;18.79;50.10
42601;BME280;28229;48.856;9.088;2023-07-20T00:29:14;97823.97;;;18.73;49.79
42601;BME280;28229;48.856;9.088;2023-07-20T00:31:40;97821.88;;;18.64;49.55
42601;BME280;28229;48.856;9.088;2023-07-20T00:34:06;97823.47;;;18.60;50.00
42601;BME280;28229;48.856;9.088;2023-07-20T00:36:33;97826.13;;;18.60;50.13
42601;BME280;28229;48.856;9.088;2023-07-20T00:39:02;97827.22;;;18.59;49.78
42601;BME280;28229;48.856;9.088;2023-07-20T00:41:29;97833.59;;;18.58;49.99
42601;BME280;28229;48.856;9.088;2023-07-20T00:43:55;97826.69;;;18.57;50.49
42601;BME280;28229;48.856;9.088;2023-07-20T00:46:25;97822.97;;;18.53;50.56
42601;BME280;28229;48.856;9.088;2023-07-20T00:48:52;97826.16;;;18.50;50.37
42601;BME280;28229;48.856;9.088;2023-07-20T00:51:20;97834.97;;;18.45;50.74
42601;BME280;28229;48.856;9.088;2023-07-20T00:53:51;97829.94;;;18.39;51.06
42601;BME280;28229;48.856;9.088;2023-07-20T00:56:18;97830.75;;;18.34;51.15
42601;BME280;28229;48.856;9.088;2023-07-20T00:58:47;97829.94;;;18.29;51.63
42601;BME280;28229;48.856;9.088;2023-07-20T01:01:13;97833.44;;;18.24;51.77
42601;BME280;28229;48.856;9.088;2023-07-20T01:03:40;97842.22;;;18.24;52.32
42601;BME280;28229;48.856;9.088;2023-07-20T01:06:19;97835.84;;;18.15;52.27
42601;BME280;28229;48.856;9.088;2023-07-20T01:11:38;97837.97;;;18.03;52.48
42601;BME280;28229;48.856;9.088;2023-07-20T01:14:14;97832.13;;;18.01;52.24
42601;BME280;28229;48.856;9.088;2023-07-20T01:16:40;97827.06;;;17.99;52.52
42601;BME280;28229;48.856;9.088;2023-07-20T01:19:06;97835.31;;;17.93;53.12
42601;BME280;28229;48.856;9.088;2023-07-20T01:27:46;97830.25;;;17.70;53.63
42601;BME280;28229;48.856;9.088;2023-07-20T01:32:47;97823.56;;;17.63;54.23
42601;BME280;28229;48.856;9.088;2023-07-20T01:35:15;97829.44;;;17.60;53.94
42601;BME280;28229;48.856;9.088;2023-07-20T01:37:44;97823.59;;;17.53;54.42
42601;BME280;28229;48.856;9.088;2023-07-20T01:40:13;97825.97;;;17.49;54.27
42601;BME280;28229;48.856;9.088;2023-07-20T01:42:45;97833.16;;;17.43;55.09
42601;BME280;28229;48.856;9.088;2023-07-20T01:45:12;97833.16;;;17.38;55.40
42601;BME280;28229;48.856;9.088;2023-07-20T01:47:39;97824.66;;;17.36;55.66
42601;BME280;28229;48.856;9.088;2023-07-20T01:50:06;97826.47;;;17.30;55.68
42601;BME280;28229;48.856;9.088;2023-07-20T01:52:33;97818.75;;;17.29;55.99
42601;BME280;28229;48.856;9.088;2023-07-20T01:54:59;97824.09;;;17.24;56.24
42601;BME280;28229;48.856;9.088;2023-07-20T01:57:25;97827.00;;;17.17;57.05
42601;BME280;28229;48.856;9.088;2023-07-20T01:59:51;97823.53;;;17.11;57.31
42601;BME280;28229;48.856;9.088;2023-07-20T02:02:34;97824.03;;;17.08;57.45
42601;BME280;28229;48.856;9.088;2023-07-20T02:05:01;97826.16;;;17.01;57.48
42601;BME280;28229;48.856;9.088;2023-07-20T02:07:27;97823.47;;;16.96;57.87
42601;BME280;28229;48.856;9.088;2023-07-20T02:09:53;97826.13;;;16.96;57.29
42601;BME280;28229;48.856;9.088;2023-07-20T02:12:19;97823.44;;;16.91;58.06
42601;BME280;28229;48.856;9.088;2023-07-20T02:14:46;97826.09;;;16.86;58.17
42601;BME280;28229;48.856;9.088;2023-07-20T02:17:13;97820.25;;;16.84;58.40
42601;BME280;28229;48.856;9.088;2023-07-20T02:19:41;97826.03;;;16.75;59.12
42601;BME280;28229;48.856;9.088;2023-07-20T02:22:07;97829.47;;;16.71;59.53
42601;BME280;28229;48.856;9.088;2023-07-20T02:24:34;97831.59;;;16.69;58.96
42601;BME280;28229;48.856;9.088;2023-07-20T02:27:00;97824.13;;;16.66;59.84
42601;BME280;28229;48.856;9.088;2023-07-20T02:29:26;97828.38;;;16.62;59.70
42601;BME280;28229;48.856;9.088;2023-07-20T02:31:52;97827.00;;;16.59;60.18
42601;BME280;28229;48.856;9.088;2023-07-20T02:34:18;97823.53;;;16.53;60.58
42601;BME280;28229;48.856;9.088;2023-07-20T02:36:46;97828.06;;;16.53;60.98
42601;BME280;28229;48.856;9.088;2023-07-20T02:39:12;97828.06;;;16.53;61.03
42601;BME280;28229;48.856;9.088;2023-07-20T02:41:38;97833.38;;;16.53;60.38
42601;BME280;28229;48.856;9.088;2023-07-20T02:44:04;97832.81;;;16.46;60.77
42601;BME280;28229;48.856;9.088;2023-07-20T02:46:30;97836.00;;;16.48;60.91
42601;BME280;28229;48.856;9.088;2023-07-20T02:48:58;97835.22;;;16.47;60.76
42601;BME280;28229;48.856;9.088;2023-07-20T02:51:24;97833.84;;;16.45;61.17
42601;BME280;28229;48.856;9.088;2023-07-20T02:53:50;97835.69;;;16.39;61.20
42601;BME280;28229;48.856;9.088;2023-07-20T02:56:16;97840.19;;;16.39;61.68
42601;BME280;28229;48.856;9.088;2023-07-20T02:58:44;97845.22;;;16.35;61.27
42601;BME280;28229;48.856;9.088;2023-07-20T03:01:11;97847.06;;;16.34;61.50
42601;BME280;28229;48.856;9.088;2023-07-20T03:03:38;97835.38;;;16.30;62.00
42601;BME280;28229;48.856;9.088;2023-07-20T03:06:05;97844.13;;;16.31;62.10
42601;BME280;28229;48.856;9.088;2023-07-20T03:08:31;97845.66;;;16.22;62.11
42601;BME280;28229;48.856;9.088;2023-07-20T03:10:58;97849.63;;;16.19;62.64
42601;BME280;28229;48.856;9.088;2023-07-20T03:13:24;97851.47;;;16.13;63.15
42601;BME280;28229;48.856;9.088;2023-07-20T03:15:52;97853.25;;;16.08;63.24
42601;BME280;28229;48.856;9.088;2023-07-20T03:18:18;97848.97;;;16.02;63.93
42601;BME280;28229;48.856;9.088;2023-07-20T03:20:45;97849.22;;;16.00;63.52
42601;BME280;28229;48.856;9.088;2023-07-20T03:23:12;97848.91;;;15.91;64.16
42601;BME280;28229;48.856;9.088;2023-07-20T03:25:38;97855.28;;;15.90;64.10
42601;BME280;28229;48.856;9.088;2023-07-20T03:28:04;97859.16;;;15.83;64.50
42601;BME280;28229;48.856;9.088;2023-07-20T03:30:32;97856.00;;;15.86;64.70
42601;BME280;28229;48.856;9.088;2023-07-20T03:32:58;97862.09;;;15.81;64.33
42601;BME280;28229;48.856;9.088;2023-07-20T03:35:24;97860.97;;;15.77;65.64
42601;BME280;28229;48.856;9.088;2023-07-20T03:37:50;97860.59;;;15.68;65.62
42601;BME280;28229;48.856;9.088;2023-07-20T03:40:17;97862.22;;;15.69;65.60
42601;BME280;28229;48.856;9.088;2023-07-20T03:42:43;97858.19;;;15.67;65.70
42601;BME280;28229;48.856;9.088;2023-07-20T03:45:09;97859.53;;;15.64;65.71
42601;BME280;28229;48.856;9.088;2023-07-20T03:47:35;97856.03;;;15.58;65.40
42601;BME280;28229;48.856;9.088;2023-07-20T03:50:02;97860.78;;;15.56;66.03
42601;BME280;28229;48.856;9.088;2023-07-20T03:52:29;97855.94;;;15.48;66.15
42601;BME280;28229;48.856;9.088;2023-07-20T03:54:55;97869.38;;;15.41;66.51
42601;BME280;28229;48.856;9.088;2023-07-20T03:57:21;97858.22;;;15.39;66.38
42601;BME280;28229;48.856;9.088;2023-07-20T03:59:50;97860.94;;;15.45;66.52
42601;BME280;28229;48.856;9.088;2023-07-20T04:02:16;97866.47;;;15.43;66.52
42601;BME280;28229;48.856;9.088;2023-07-20T04:04:42;97870.25;;;15.47;66.64
42601;BME280;28229;48.856;9.088;2023-07-20T04:07:09;97867.25;;;15.43;66.97
42601;BME280;28229;48.856;9.088;2023-07-20T04:09:35;97874.44;;;15.43;66.86
42601;BME280;28229;48.856;9.088;2023-07-20T04:12:01;97871.19;;;15.36;67.18
42601;BME280;28229;48.856;9.088;2023-07-20T04:14:28;97876.72;;;15.34;66.96
42601;BME280;28229;48.856;9.088;2023-07-20T04:16:54;97872.69;;;15.27;67.21
42601;BME280;28229;48.856;9.088;2023-07-20T04:19:20;97866.81;;;15.25;67.77
42601;BME280;28229;48.856;9.088;2023-07-20T04:22:01;97875.81;;;15.23;68.18
42601;BME280;28229;48.856;9.088;2023-07-20T04:24:29;97875.81;;;15.23;68.30
42601;BME280;28229;48.856;9.088;2023-07-20T04:26:55;97875.31;;;15.27;68.64
42601;BME280;28229;48.856;9.088;2023-07-20T04:29:21;97879.31;;;15.29;69.04
42601;BME280;28229;48.856;9.088;2023-07-20T04:31:48;97876.41;;;15.31;69.67
42601;BME280;28229;48.856;9.088;2023-07-20T04:34:14;97876.72;;;15.34;69.74
42601;BME280;28229;48.856;9.088;2023-07-20T04:36:41;97881.03;;;15.40;69.40
42601;BME280;28229;48.856;9.088;2023-07-20T04:39:09;97876.03;;;15.44;69.32
42601;BME280;28229;48.856;9.088;2023-07-20T04:41:40;97876.66;;;15.51;68.98
42601;BME280;28229;48.856;9.088;2023-07-20T04:44:06;97879.03;;;15.53;69.21
42601;BME280;28229;48.856;9.088;2023-07-20T04:46:32;97872.97;;;15.57;69.88
42601;BME280;28229;48.856;9.088;2023-07-20T04:49:01;97876.47;;;15.63;69.67
42601;BME280;28229;48.856;9.088;2023-07-20T04:51:30;97880.00;;;15.69;69.94
42601;BME280;28229;48.856;9.088;2023-07-20T04:53:57;97883.72;;;15.73;69.89
42601;BME280;28229;48.856;9.088;2023-07-20T04:56:24;97877.97;;;15.76;70.04
42601;BME280;28229;48.856;9.088;2023-07-20T04:58:51;97883.88;;;15.83;70.27
42601;BME280;28229;48.856;9.088;2023-07-20T05:01:17;97877.81;;;15.93;69.85
42601;BME280;28229;48.856;9.088;2023-07-20T05:03:43;97884.50;;;16.01;69.24
42601;BME280;28229;48.856;9.088;2023-07-20T05:06:10;97885.09;;;16.08;69.83
42601;BME280;28229;48.856;9.088;2023-07-20T05:08:36;97883.59;;;16.17;69.79
42601;BME280;28229;48.856;9.088;2023-07-20T05:11:05;97875.41;;;16.24;69.93
42601;BME280;28229;48.856;9.088;2023-07-20T05:13:31;97877.88;;;16.35;69.28
42601;BME280;28229;48.856;9.088;2023-07-20T05:15:57;97882.94;;;16.37;69.48
42601;BME280;28229;48.856;9.088;2023-07-20T05:18:23;97875.28;;;16.46;69.04
42601;BME280;28229;48.856;9.088;2023-07-20T05:20:51;97881.16;;;16.53;68.63
42601;BME280;28229;48.856;9.088;2023-07-20T05:23:18;97883.06;;;16.63;68.77
42601;BME280;28229;48.856;9.088;2023-07-20T05:25:44;97881.81;;;16.70;66.93
42601;BME280;28229;48.856;9.088;2023-07-20T05:28:10;97884.47;;;16.81;66.88
42601;BME280;28229;48.856;9.088;2023-07-20T05:30:37;97879.25;;;16.91;68.85
42601;BME280;28229;48.856;9.088;2023-07-20T05:33:03;97879.84;;;17.03;67.92
42601;BME280;28229;48.856;9.088;2023-07-20T05:35:31;97880.91;;;17.07;66.87
42601;BME280;28229;48.856;9.088;2023-07-20T05:37:58;97877.75;;;17.16;66.33
42601;BME280;28229;48.856;9.088;2023-07-20T05:40:24;97875.66;;;17.28;66.34
42601;BME280;28229;48.856;9.088;2023-07-20T05:42:50;97876.50;;;17.44;66.72
42601;BME280;28229;48.856;9.088;2023-07-20T05:45:18;97875.44;;;17.55;65.70
42601;BME280;28229;48.856;9.088;2023-07-20T05:47:44;97869.63;;;17.68;64.75
42601;BME280;28229;48.856;9.088;2023-07-20T05:50:10;97865.91;;;17.80;64.39
42601;BME280;28229;48.856;9.088;2023-07-20T05:52:36;97871.00;;;17.97;64.20
42601;BME280;28229;48.856;9.088;2023-07-20T05:55:05;97875.00;;;18.10;63.35
42601;BME280;28229;48.856;9.088;2023-07-20T05:57:32;97873.63;;;18.22;63.04
42601;BME280;28229;48.856;9.088;2023-07-20T05:59:58;97872.28;;;18.35;62.51
42601;BME280;28229;48.856;9.088;2023-07-20T06:02:24;97879.44;;;18.50;61.22
42601;BME280;28229;48.856;9.088;2023-07-20T06:04:50;97874.59;;;18.68;61.50
42601;BME280;28229;48.856;9.088;2023-07-20T06:07:16;97879.13;;;18.77;61.04
42601;BME280;28229;48.856;9.088;2023-07-20T06:09:43;97877.75;;;18.90;59.12
42601;BME280;28229;48.856;9.088;2023-07-20T06:12:09;97880.38;;;19.06;57.79
42601;BME280;28229;48.856;9.088;2023-07-20T06:14:35;97888.84;;;19.18;57.60
42601;BME280;28229;48.856;9.088;2023-07-20T06:17:01;97888.78;;;19.28;56.80
42601;BME280;28229;48.856;9.088;2023-07-20T06:19:28;97883.16;;;19.35;56.57
42601;BME280;28229;48.856;9.088;2023-07-20T06:21:54;97887.38;;;19.41;56.42
42601;BME280;28229;48.856;9.088;2023-07-20T06:24:20;97884.38;;;19.53;56.53
42601;BME280;28229;48.856;9.088;2023-07-20T06:26:46;97885.34;;;19.67;55.63
42601;BME280;28229;48.856;9.088;2023-07-20T06:29:12;97885.31;;;19.77;54.90
42601;BME280;28229;48.856;9.088;2023-07-20T06:31:38;97887.66;;;19.89;55.23
42601;BME280;28229;48.856;9.088;2023-07-20T06:34:04;97888.91;;;19.97;55.00
42601;BME280;28229;48.856;9.088;2023-07-20T06:36:33;97888.25;;;20.10;55.25
42601;BME280;28229;48.856;9.088;2023-07-20T06:38:59;97891.88;;;20.25;54.28
42601;BME280;28229;48.856;9.088;2023-07-20T06:41:25;97887.53;;;20.34;53.90
42601;BME280;28229;48.856;9.088;2023-07-20T06:43:51;97879.16;;;20.41;53.78
42601;BME280;28229;48.856;9.088;2023-07-20T06:46:18;97874.59;;;20.46;53.48
42601;BME280;28229;48.856;9.088;2023-07-20T06:48:58;97878.19;;;20.61;53.43
42601;BME280;28229;48.856;9.088;2023-07-20T06:51:25;97879.41;;;20.73;52.98
42601;BME280;28229;48.856;9.088;2023-07-20T06:53:51;97871.59;;;20.77;51.94
42601;BME280;28229;48.856;9.088;2023-07-20T06:56:17;97877.56;;;20.93;51.96
42601;BME280;28229;48.856;9.088;2023-07-20T06:58:46;97877.66;;;21.07;51.55
42601;BME280;28229;48.856;9.088;2023-07-20T07:01:13;97879.69;;;21.15;51.55
42601;BME280;28229;48.856;9.088;2023-07-20T07:03:40;97872.59;;;21.24;50.94
42601;BME280;28229;48.856;9.088;2023-07-20T07:06:07;97872.53;;;21.29;50.50
42601;BME280;28229;48.856;9.088;2023-07-20T07:08:33;97879.44;;;21.36;50.20
42601;BME280;28229;48.856;9.088;2023-07-20T07:10:59;97882.69;;;21.33;50.26
42601;BME280;28229;48.856;9.088;2023-07-20T07:13:25;97879.78;;;21.29;49.79
42601;BME280;28229;48.856;9.088;2023-07-20T07:15:52;97877.19;;;21.43;49.50
42601;BME280;28229;48.856;9.088;2023-07-20T07:18:18;97872.13;;;21.60;49.41
42601;BME280;28229;48.856;9.088;2023-07-20T07:20:52;97879.44;;;21.74;49.30
42601;BME280;28229;48.856;9.088;2023-07-20T07:23:19;97879.66;;;21.58;48.51
42601;BME280;28229;48.856;9.088;2023-07-20T07:25:46;97867.88;;;21.59;48.76
42601;BME280;28229;48.856;9.088;2023-07-20T07:28:12;97868.38;;;21.61;47.82
42601;BME280;28229;48.856;9.088;2023-07-20T07:30:38;97867.81;;;21.64;47.97
42601;BME280;28229;48.856;9.088;2023-07-20T07:33:05;97871.63;;;21.58;48.43
42601;BME280;28229;48.856;9.088;2023-07-20T07:35:34;97865.75;;;21.75;48.39
42601;BME280;28229;48.856;9.088;2023-07-20T07:38:00;97869.66;;;21.83;48.06
42601;BME280;28229;48.856;9.088;2023-07-20T07:40:26;97872.31;;;22.02;47.94
42601;BME280;28229;48.856;9.088;2023-07-20T07:42:52;97867.94;;;22.06;46.81
42601;BME280;28229;48.856;9.088;2023-07-20T07:45:19;97872.75;;;21.90;46.83
42601;BME280;28229;48.856;9.088;2023-07-20T07:47:45;97867.97;;;21.87;46.83
42601;BME280;28229;48.856;9.088;2023-07-20T07:50:11;97865.22;;;21.92;46.91
42601;BME280;28229;48.856;9.088;2023-07-20T07:52:37;97861.72;;;22.11;47.22
42601;BME280;28229;48.856;9.088;2023-07-20T07:55:04;97862.78;;;22.10;46.71
42601;BME280;28229;48.856;9.088;2023-07-20T07:57:30;97864.09;;;22.26;46.88
42601;BME280;28229;48.856;9.088;2023-07-20T07:59:57;97866.47;;;22.47;45.66
42601;BME280;28229;48.856;9.088;2023-07-20T08:02:23;97867.56;;;22.59;45.43
42601;BME280;28229;48.856;9.088;2023-07-20T08:04:49;97872.34;;;22.76;45.16
42601;BME280;28229;48.856;9.088;2023-07-20T08:07:18;97870.94;;;22.93;44.91
42601;BME280;28229;48.856;9.088;2023-07-20T08:09:44;97863.59;;;23.12;44.68
42601;BME280;28229;48.856;9.088;2023-07-20T08:12:10;97871.28;;;23.28;44.34
42601;BME280;28229;48.856;9.088;2023-07-20T08:14:36;97869.13;;;23.30;43.85
42601;BME280;28229;48.856;9.088;2023-07-20T08:17:03;97862.78;;;23.12;44.89
42601;BME280;28229;48.856;9.088;2023-07-20T08:19:45;97866.56;;;22.97;44.63
42601;BME280;28229;48.856;9.088;2023-07-20T08:22:12;97863.19;;;22.77;45.10
42601;BME280;28229;48.856;9.088;2023-07-20T08:24:40;97862.00;;;22.84;44.00
42601;BME280;28229;48.856;9.088;2023-07-20T08:27:06;97860.31;;;22.88;43.83
42601;BME280;28229;48.856;9.088;2023-07-20T08:29:33;97852.97;;;23.07;43.70
42601;BME280;28229;48.856;9.088;2023-07-20T08:31:59;97856.78;;;23.29;44.09
42601;BME280;28229;48.856;9.088;2023-07-20T08:34:25;97865.34;;;23.31;42.08
42601;BME280;28229;48.856;9.088;2023-07-20T08:36:51;97855.44;;;23.17;42.21
42601;BME280;28229;48.856;9.088;2023-07-20T08:39:18;97857.59;;;23.15;43.16
42601;BME280;28229;48.856;9.088;2023-07-20T08:41:46;97855.31;;;23.23;43.18
42601;BME280;28229;48.856;9.088;2023-07-20T08:44:12;97856.94;;;23.46;43.26
42601;BME280;28229;48.856;9.088;2023-07-20T08:46:39;97859.44;;;23.65;42.53
42601;BME280;28229;48.856;9.088;2023-07-20T08:49:06;97863.31;;;23.95;42.18
42601;BME280;28229;48.856;9.088;2023-07-20T08:51:48;97867.47;;;24.02;40.81
42601;BME280;28229;48.856;9.088;2023-07-20T08:54:15;97859.63;;;23.69;40.46
42601;BME280;28229;48.856;9.088;2023-07-20T08:56:45;97854.47;;;23.36;41.27
42601;BME280;28229;48.856;9.088;2023-07-20T08:59:12;97863.38;;;23.23;42.02
42601;BME280;28229;48.856;9.088;2023-07-20T09:01:43;97863.25;;;23.28;42.45
42601;BME280;28229;48.856;9.088;2023-07-20T09:04:10;97863.69;;;23.44;41.90
42601;BME280;28229;48.856;9.088;2023-07-20T09:06:37;97863.06;;;23.61;41.40
42601;BME280;28229;48.856;9.088;2023-07-20T09:09:04;97860.78;;;23.90;41.03
42601;BME280;28229;48.856;9.088;2023-07-20T09:11:30;97857.09;;;24.09;40.55
42601;BME280;28229;48.856;9.088;2023-07-20T09:14:06;97855.94;;;24.32;38.75
42601;BME280;28229;48.856;9.088;2023-07-20T09:16:47;97853.63;;;24.48;38.85
42601;BME280;28229;48.856;9.088;2023-07-20T09:19:16;97854.31;;;24.54;38.92
42601;BME280;28229;48.856;9.088;2023-07-20T09:21:50;97853.56;;;24.62;39.02
42601;BME280;28229;48.856;9.088;2023-07-20T09:24:18;97850.66;;;24.50;37.07
42601;BME280;28229;48.856;9.088;2023-07-20T09:26:46;97862.16;;;24.42;36.85
42601;BME280;28229;48.856;9.088;2023-07-20T09:29:18;97848.56;;;24.47;36.21
42601;BME280;28229;48.856;9.088;2023-07-20T09:31:59;97844.44;;;24.81;35.75
42601;BME280;28229;48.856;9.088;2023-07-20T09:34:26;97853.47;;;24.94;36.02
42601;BME280;28229;48.856;9.088;2023-07-20T09:36:53;97850.34;;;25.00;34.21
42601;BME280;28229;48.856;9.088;2023-07-20T09:39:20;97852.63;;;25.24;33.41
42601;BME280;28229;48.856;9.088;2023-07-20T09:41:46;97848.03;;;25.42;33.40
42601;BME280;28229;48.856;9.088;2023-07-20T09:44:14;97850.25;;;25.58;33.69
42601;BME280;28229;48.856;9.088;2023-07-20T09:46:45;97841.34;;;25.83;33.82
42601;BME280;28229;48.856;9.088;2023-07-20T09:49:11;97849.13;;;25.76;33.03
42601;BME280;28229;48.856;9.088;2023-07-20T09:51:38;97853.09;;;25.70;32.83
42601;BME280;28229;48.856;9.088;2023-07-20T09:54:05;97842.00;;;25.80;33.20
42601;BME280;28229;48.856;9.088;2023-07-20T09:56:32;97841.69;;;25.73;32.83
42601;BME280;28229;48.856;9.088;2023-07-20T09:58:59;97848.50;;;25.71;32.56
42601;BME280;28229;48.856;9.088;2023-07-20T10:01:26;97844.84;;;25.84;33.26
42601;BME280;28229;48.856;9.088;2023-07-20T10:03:54;97840.69;;;26.04;31.74
42601;BME280;28229;48.856;9.088;2023-07-20T10:06:24;97845.00;;;26.05;31.48
42601;BME280;28229;48.856;9.088;2023-07-20T10:08:56;97843.38;;;26.13;31.37
42601;BME280;28229;48.856;9.088;2023-07-20T10:11:32;97839.84;;;26.30;31.84
42601;BME280;28229;48.856;9.088;2023-07-20T10:14:03;97841.66;;;26.47;30.65
42601;BME280;28229;48.856;9.088;2023-07-20T10:16:35;97841.34;;;26.48;30.00
42601;BME280;28229;48.856;9.088;2023-07-20T10:19:11;97833.69;;;26.20;29.22
42601;BME280;28229;48.856;9.088;2023-07-20T10:21:47;97833.03;;;26.24;29.53
42601;BME280;28229;48.856;9.088;2023-07-20T10:24:14;97839.50;;;26.40;30.24
42601;BME280;28229;48.856;9.088;2023-07-20T10:26:42;97829.88;;;26.69;29.33
42601;BME280;28229;48.856;9.088;2023-07-20T10:29:08;97826.78;;;26.79;29.39
42601;BME280;28229;48.856;9.088;2023-07-20T10:31:36;97817.03;;;26.66;29.72
42601;BME280;28229;48.856;9.088;2023-07-20T10:34:04;97821.09;;;26.72;29.67
42601;BME280;28229;48.856;9.088;2023-07-20T10:36:30;97817.31;;;26.73;30.09
42601;BME280;28229;48.856;9.088;2023-07-20T10:38:57;97820.34;;;26.92;29.67
42601;BME280;28229;48.856;9.088;2023-07-20T10:41:39;97818.72;;;27.21;28.46
42601;BME280;28229;48.856;9.088;2023-07-20T10:44:08;97815.03;;;27.05;29.24
42601;BME280;28229;48.856;9.088;2023-07-20T10:49:05;97806.41;;;26.90;29.28
42601;BME280;28229;48.856;9.088;2023-07-20T10:51:42;97812.25;;;26.92;27.75
42601;BME280;28229;48.856;9.088;2023-07-20T10:56:47;97809.66;;;27.26;28.02
42601;BME280;28229;48.856;9.088;2023-07-20T10:59:18;97806.19;;;27.59;28.15
42601;BME280;28229;48.856;9.088;2023-07-20T11:01:47;97805.41;;;27.58;28.27
42601;BME280;28229;48.856;9.088;2023-07-20T11:04:16;97805.09;;;27.17;29.11
42601;BME280;28229;48.856;9.088;2023-07-20T11:06:45;97793.44;;;27.26;28.31
42601;BME280;28229;48.856;9.088;2023-07-20T11:09:13;97802.63;;;27.33;28.82
42601;BME280;28229;48.856;9.088;2023-07-20T11:11:44;97798.44;;;27.15;28.66
42601;BME280;28229;48.856;9.088;2023-07-20T11:14:21;97799.16;;;27.24;27.44
42601;BME280;28229;48.856;9.088;2023-07-20T11:16:49;97796.00;;;27.22;26.91
42601;BME280;28229;48.856;9.088;2023-07-20T11:19:21;97802.06;;;27.19;26.82
42601;BME280;28229;48.856;9.088;2023-07-20T11:24:17;97793.59;;;27.29;26.45
42601;BME280;28229;48.856;9.088;2023-07-20T11:26:48;97801.81;;;27.54;26.19
42601;BME280;28229;48.856;9.088;2023-07-20T11:29:16;97807.09;;;27.63;26.41
42601;BME280;28229;48.856;9.088;2023-07-20T11:31:44;97798.22;;;27.62;26.80
42601;BME280;28229;48.856;9.088;2023-07-20T11:34:15;97780.81;;;27.72;26.62
42601;BME280;28229;48.856;9.088;2023-07-20T11:36:42;97786.34;;;27.76;25.60
42601;BME280;28229;48.856;9.088;2023-07-20T11:39:10;97787.31;;;27.92;24.06
42601;BME280;28229;48.856;9.088;2023-07-20T11:41:37;97789.34;;;27.95;24.73
42601;BME280;28229;48.856;9.088;2023-07-20T11:44:04;97787.34;;;28.17;26.14
42601;BME280;28229;48.856;9.088;2023-07-20T11:46:34;97783.72;;;28.25;24.52
42601;BME280;28229;48.856;9.088;2023-07-20T11:49:01;97779.00;;;28.09;24.68
42601;BME280;28229;48.856;9.088;2023-07-20T11:51:28;97782.50;;;28.22;24.36
42601;BME280;28229;48.856;9.088;2023-07-20T11:53:55;97781.22;;;28.07;24.28
42601;BME280;28229;48.856;9.088;2023-07-20T11:56:24;97778.66;;;28.36;25.31
42601;BME280;28229;48.856;9.088;2023-07-20T11:58:50;97771.13;;;28.29;24.77
42601;BME280;28229;48.856;9.088;2023-07-20T12:01:17;97775.81;;;28.07;24.83
42601;BME280;28229;48.856;9.088;2023-07-20T12:03:44;97774.41;;;27.89;24.75
42601;BME280;28229;48.856;9.088;2023-07-20T12:06:10;97765.47;;;27.97;25.43
42601;BME280;28229;48.856;9.088;2023-07-20T12:08:41;97762.09;;;28.25;25.57
42601;BME280;28229;48.856;9.088;2023-07-20T12:11:08;97756.91;;;28.44;26.59
42601;BME280;28229;48.856;9.088;2023-07-20T12:13:42;97758.94;;;28.35;25.85
42601;BME280;28229;48.856;9.088;2023-07-20T12:16:10;97756.91;;;28.20;26.53
42601;BME280;28229;48.856;9.088;2023-07-20T12:18:37;97760.41;;;28.57;26.06
42601;BME280;28229;48.856;9.088;2023-07-20T12:21:03;97757.22;;;28.80;25.45
42601;BME280;28229;48.856;9.088;2023-07-20T12:23:39;97749.66;;;28.85;24.12
42601;BME280;28229;48.856;9.088;2023-07-20T12:26:07;97744.88;;;28.54;24.01
42601;BME280;28229;48.856;9.088;2023-07-20T12:28:41;97738.28;;;28.67;24.71
42601;BME280;28229;48.856;9.088;2023-07-20T12:31:08;97736.75;;;28.54;24.39
42601;BME280;28229;48.856;9.088;2023-07-20T12:33:35;97743.69;;;28.80;23.98
42601;BME280;28229;48.856;9.088;2023-07-20T12:36:02;97747.06;;;28.77;24.62
42601;BME280;28229;48.856;9.088;2023-07-20T12:38:28;97747.31;;;29.12;24.05
42601;BME280;28229;48.856;9.088;2023-07-20T12:40:57;97740.63;;;28.94;23.82
42601;BME280;28229;48.856;9.088;2023-07-20T12:43:24;97734.53;;;29.25;24.37
42601;BME280;28229;48.856;9.088;2023-07-20T12:45:50;97728.91;;;29.46;24.35
42601;BME280;28229;48.856;9.088;2023-07-20T12:48:16;97731.38;;;29.51;23.22
42601;BME280;28229;48.856;9.088;2023-07-20T12:50:43;97733.69;;;29.37;22.61
42601;BME280;28229;48.856;9.088;2023-07-20T12:53:09;97722.41;;;29.07;23.50
42601;BME280;28229;48.856;9.088;2023-07-20T12:55:35;97731.44;;;28.98;23.90
42601;BME280;28229;48.856;9.088;2023-07-20T12:58:01;97727.22;;;29.13;23.49
42601;BME280;28229;48.856;9.088;2023-07-20T13:00:27;97718.03;;;29.30;23.44
42601;BME280;28229;48.856;9.088;2023-07-20T13:02:53;97710.97;;;29.26;23.13
42601;BME280;28229;48.856;9.088;2023-07-20T13:05:20;97707.44;;;29.25;23.88
42601;BME280;28229;48.856;9.088;2023-07-20T13:07:46;97704.91;;;29.16;23.70
42601;BME280;28229;48.856;9.088;2023-07-20T13:10:12;97708.50;;;29.08;22.87
42601;BME280;28229;48.856;9.088;2023-07-20T13:12:38;97696.69;;;29.29;23.33
42601;BME280;28229;48.856;9.088;2023-07-20T13:15:06;97701.72;;;29.42;23.47
42601;BME280;28229;48.856;9.088;2023-07-20T13:17:38;97708.03;;;28.90;24.57
42601;BME280;28229;48.856;9.088;2023-07-20T13:20:08;97707.91;;;28.86;24.17
42601;BME280;28229;48.856;9.088;2023-07-20T13:22:37;97707.63;;;29.32;24.71